createdAt,value
2023-10-23T00:02:08.126Z,3.23
2023-10-23T00:04:36.218Z,3.13
2023-10-23T00:07:04.621Z,3.03
2023-10-23T00:09:32.546Z,3.10
2023-10-23T00:12:00.444Z,3.57
2023-10-23T00:14:28.443Z,3.10
2023-10-23T00:16:57.745Z,3.50
2023-10-23T00:19:25.664Z,3.13
2023-10-23T00:21:53.553Z,2.80
2023-10-23T00:24:21.623Z,2.83
2023-10-23T00:26:49.488Z,3.50
2023-10-23T00:29:17.310Z,3.40
2023-10-23T00:31:45.256Z,3.60
2023-10-23T00:34:14.610Z,3.43
2023-10-23T00:36:42.515Z,3.37
2023-10-23T00:39:10.566Z,3.73
2023-10-23T00:41:38.443Z,3.30
2023-10-23T00:44:06.602Z,3.80
2023-10-23T00:46:34.527Z,3.40
2023-10-23T00:49:02.684Z,3.70
2023-10-23T00:51:32.340Z,3.27
2023-10-23T00:54:00.518Z,3.50
2023-10-23T00:56:28.750Z,2.90
2023-10-23T00:58:56.620Z,3.00
2023-10-23T01:01:24.914Z,3.43
2023-10-23T01:03:52.855Z,3.67
2023-10-23T01:06:20.806Z,3.30
2023-10-23T01:08:50.068Z,3.23
2023-10-23T01:11:17.964Z,3.17
2023-10-23T01:13:45.888Z,2.67
2023-10-23T01:16:13.753Z,2.60
2023-10-23T01:18:41.730Z,2.67
2023-10-23T01:21:09.639Z,2.80
2023-10-23T01:23:38.384Z,2.57
2023-10-23T01:26:07.679Z,2.70
2023-10-23T01:28:35.606Z,3.00
2023-10-23T01:31:03.694Z,2.87
2023-10-23T01:33:31.694Z,2.37
2023-10-23T01:35:59.574Z,2.70
2023-10-23T01:38:27.395Z,2.93
2023-10-23T01:40:55.296Z,2.40
2023-10-23T01:43:24.602Z,2.67
2023-10-23T01:45:52.528Z,2.40
2023-10-23T01:48:20.499Z,2.37
2023-10-23T01:50:48.374Z,2.37
2023-10-23T01:53:16.244Z,2.60
2023-10-23T01:55:44.103Z,2.13
2023-10-23T01:58:11.935Z,2.53
2023-10-23T02:00:41.304Z,2.40
2023-10-23T02:03:09.306Z,2.43
2023-10-23T02:05:37.672Z,2.33
2023-10-23T02:08:06.243Z,2.43
2023-10-23T02:10:34.171Z,2.77
2023-10-23T02:13:02.043Z,2.53
2023-10-23T02:15:29.959Z,2.40
2023-10-23T02:17:59.324Z,2.63
2023-10-23T02:20:28.728Z,2.40
2023-10-23T02:22:56.551Z,3.00
2023-10-23T02:25:24.450Z,3.23
2023-10-23T02:27:52.344Z,2.70
2023-10-23T02:30:20.373Z,3.00
2023-10-23T02:32:48.256Z,2.90
2023-10-23T02:35:17.551Z,2.90
2023-10-23T02:37:45.448Z,2.73
2023-10-23T02:40:14.358Z,3.03
2023-10-23T02:42:42.251Z,2.53
2023-10-23T02:45:10.794Z,2.33
2023-10-23T02:47:38.821Z,2.70
2023-10-23T02:50:07.792Z,2.30
2023-10-23T02:52:37.030Z,2.40
2023-10-23T02:55:05.641Z,2.53
2023-10-23T02:57:33.633Z,2.40
2023-10-23T03:00:01.720Z,2.30
2023-10-23T03:02:30.364Z,2.30
2023-10-23T03:04:58.353Z,1.90
2023-10-23T03:07:26.285Z,2.27
2023-10-23T03:09:55.752Z,2.10
2023-10-23T03:12:23.727Z,2.07
2023-10-23T03:14:51.606Z,2.20
2023-10-23T03:17:19.712Z,2.40
2023-10-23T03:19:47.763Z,2.40
2023-10-23T03:22:15.846Z,2.20
2023-10-23T03:24:43.775Z,2.50
2023-10-23T03:27:13.099Z,2.20
2023-10-23T03:29:40.932Z,2.30
2023-10-23T03:32:08.782Z,1.97
2023-10-23T03:34:36.696Z,2.07
2023-10-23T03:37:05.274Z,2.30
2023-10-23T03:39:33.212Z,2.13
2023-10-23T03:42:01.197Z,2.10
2023-10-23T03:44:30.504Z,1.97
2023-10-23T03:46:58.343Z,2.10
2023-10-23T03:49:26.247Z,2.30
2023-10-23T03:51:54.116Z,2.40
2023-10-23T03:54:22.086Z,2.13
2023-10-23T03:56:50.086Z,2.30
2023-10-23T03:59:17.964Z,1.90
2023-10-23T04:01:47.187Z,2.00
2023-10-23T04:04:15.890Z,1.90
2023-10-23T04:06:43.822Z,2.23
2023-10-23T04:09:11.752Z,1.97
2023-10-23T04:11:39.581Z,1.97
2023-10-23T04:14:07.576Z,2.50
2023-10-23T04:16:35.458Z,2.10
2023-10-23T04:19:04.808Z,2.03
2023-10-23T04:21:32.756Z,2.10
2023-10-23T04:24:00.685Z,2.10
2023-10-23T04:26:28.560Z,2.20
2023-10-23T04:28:56.534Z,2.37
2023-10-23T04:31:24.452Z,1.60
2023-10-23T04:33:52.389Z,2.40
2023-10-23T04:36:21.920Z,1.90
2023-10-23T04:38:49.914Z,2.00
2023-10-23T04:41:17.781Z,2.27
2023-10-23T04:43:45.618Z,1.83
2023-10-23T04:46:13.606Z,2.10
2023-10-23T04:48:41.527Z,2.00
2023-10-23T04:51:09.433Z,2.00
2023-10-23T04:53:39.132Z,2.00
2023-10-23T04:56:07.662Z,2.27
2023-10-23T04:58:35.600Z,2.37
2023-10-23T05:01:05.084Z,2.17
2023-10-23T05:03:33.253Z,2.10
2023-10-23T05:06:01.269Z,2.03
2023-10-23T05:08:29.168Z,2.23
2023-10-23T05:11:08.081Z,2.40
2023-10-23T05:13:35.994Z,2.40
2023-10-23T05:16:05.791Z,2.33
2023-10-23T05:18:34.205Z,2.17
2023-10-23T05:21:08.158Z,2.23
2023-10-23T05:23:36.066Z,2.60
2023-10-23T05:26:04.038Z,2.50
2023-10-23T05:28:33.618Z,2.30
2023-10-23T05:31:01.665Z,2.40
2023-10-23T05:33:29.632Z,2.40
2023-10-23T05:36:05.082Z,2.50
2023-10-23T05:38:33.509Z,2.30
2023-10-23T05:41:02.019Z,2.67
2023-10-23T05:43:30.279Z,2.37
2023-10-23T05:45:59.719Z,2.53
2023-10-23T05:48:27.697Z,2.47
2023-10-23T05:50:59.805Z,2.40
2023-10-23T05:53:27.787Z,2.27
2023-10-23T05:55:55.798Z,2.30
2023-10-23T05:58:23.769Z,2.63
2023-10-23T06:00:51.721Z,2.30
2023-10-23T06:03:21.044Z,2.60
2023-10-23T06:05:48.960Z,2.40
2023-10-23T06:08:16.826Z,2.40
2023-10-23T06:10:45.253Z,2.60
2023-10-23T06:13:13.640Z,2.50
2023-10-23T06:15:41.584Z,2.50
2023-10-23T06:18:09.533Z,2.40
2023-10-23T06:20:38.782Z,2.63
2023-10-23T06:23:06.663Z,2.40
2023-10-23T06:25:34.680Z,2.50
2023-10-23T06:28:03.626Z,2.23
2023-10-23T06:30:31.663Z,2.63
2023-10-23T06:32:59.623Z,2.00
2023-10-23T06:35:27.996Z,2.63
2023-10-23T06:37:57.241Z,2.80
2023-10-23T06:40:25.111Z,2.43
2023-10-23T06:42:52.922Z,2.40
2023-10-23T06:45:20.834Z,2.30
2023-10-23T06:47:50.266Z,2.10
2023-10-23T06:50:18.359Z,2.37
2023-10-23T06:52:46.518Z,2.23
2023-10-23T06:55:19.103Z,2.10
2023-10-23T06:57:46.940Z,2.40
2023-10-23T07:00:15.802Z,2.00
2023-10-23T07:02:43.806Z,2.50
2023-10-23T07:05:11.688Z,2.40
2023-10-23T07:07:39.577Z,2.47
2023-10-23T07:10:08.670Z,2.27
2023-10-23T07:12:39.654Z,2.30
2023-10-23T07:45:12.537Z,2.53
2023-10-23T07:47:41.958Z,2.20
2023-10-23T07:50:10.858Z,1.90
2023-10-23T07:52:38.753Z,2.33
2023-10-23T07:55:07.341Z,2.43
2023-10-23T07:57:35.287Z,2.07
2023-10-23T08:00:07.341Z,2.00
2023-10-23T08:02:35.246Z,2.37
2023-10-23T08:05:06.109Z,1.97
2023-10-23T08:07:34.119Z,2.10
2023-10-23T08:10:01.999Z,2.17
2023-10-23T08:12:29.944Z,2.07
2023-10-23T08:14:57.849Z,2.10
2023-10-23T08:17:41.340Z,2.00
2023-10-23T08:20:12.535Z,2.17
2023-10-23T08:22:40.463Z,1.87
2023-10-23T08:25:10.129Z,2.10
2023-10-23T08:27:38.056Z,1.80
2023-10-23T08:30:08.010Z,1.90
2023-10-23T08:32:45.943Z,1.73
2023-10-23T08:35:21.939Z,2.17
2023-10-23T08:37:49.879Z,2.33
2023-10-23T08:40:17.995Z,2.13
2023-10-23T08:42:46.521Z,2.20
2023-10-23T08:45:15.414Z,2.47
2023-10-23T08:47:43.378Z,2.13
2023-10-23T08:50:11.771Z,2.50
2023-10-23T08:52:48.084Z,2.17
2023-10-23T08:55:16.784Z,1.93
2023-10-23T08:57:53.215Z,1.70
2023-10-23T09:00:22.249Z,1.70
2023-10-23T09:02:56.501Z,1.53
2023-10-23T09:05:25.371Z,2.07
2023-10-23T09:07:55.350Z,1.60
2023-10-23T09:10:23.486Z,1.80
2023-10-23T09:12:56.872Z,1.97
2023-10-23T09:15:25.996Z,1.70
2023-10-23T09:17:55.648Z,1.57
2023-10-23T09:20:28.242Z,1.53
2023-10-23T09:22:57.988Z,1.60
2023-10-23T09:25:26.567Z,1.30
2023-10-23T09:27:54.770Z,1.80
2023-10-23T09:30:23.654Z,1.43
2023-10-23T09:32:54.621Z,1.50
2023-10-23T09:35:25.756Z,1.60
2023-10-23T09:37:53.805Z,1.50
2023-10-23T09:40:23.120Z,1.60
2023-10-23T09:42:51.332Z,1.33
2023-10-23T09:45:19.442Z,1.87
2023-10-23T09:47:48.763Z,1.47
2023-10-23T09:50:16.692Z,1.60
2023-10-23T09:52:45.557Z,1.47
2023-10-23T09:55:14.024Z,1.60
2023-10-23T09:57:47.339Z,1.87
2023-10-23T10:00:15.814Z,1.97
2023-10-23T10:02:48.010Z,1.70
2023-10-23T10:05:19.753Z,1.50
2023-10-23T10:07:59.557Z,1.30
2023-10-23T10:10:28.930Z,1.27
2023-10-23T10:12:58.851Z,1.43
2023-10-23T10:15:26.996Z,1.33
2023-10-23T10:17:54.968Z,1.37
2023-10-23T10:20:23.997Z,1.47
2023-10-23T10:22:57.845Z,1.27
2023-10-23T10:25:26.390Z,1.53
2023-10-23T10:27:59.740Z,1.20
2023-10-23T10:30:42.165Z,1.10
2023-10-23T10:34:25.694Z,1.40
2023-10-23T10:36:01.085Z,1.70
2023-10-23T10:38:30.861Z,1.40
2023-10-23T10:41:00.096Z,1.43
2023-10-23T10:43:32.615Z,1.20
2023-10-23T10:46:01.943Z,1.30
2023-10-23T10:48:42.951Z,1.70
2023-10-23T10:51:11.028Z,2.00
2023-10-23T10:53:41.593Z,2.03
2023-10-23T10:56:10.866Z,1.90
2023-10-23T10:58:41.179Z,1.57
2023-10-23T11:01:10.379Z,1.90
2023-10-23T11:03:38.937Z,1.90
2023-10-23T11:06:09.028Z,1.80
2023-10-23T11:08:36.861Z,2.00
2023-10-23T11:11:06.299Z,1.80
2023-10-23T11:13:34.542Z,1.70
2023-10-23T11:16:05.955Z,1.70
2023-10-23T11:18:34.325Z,1.70
2023-10-23T11:21:02.445Z,1.50
2023-10-23T11:23:30.780Z,1.30
2023-10-23T11:25:58.870Z,1.30
2023-10-23T11:28:27.411Z,1.37
2023-10-23T11:30:58.099Z,1.30
2023-10-23T11:33:27.401Z,1.20
2023-10-23T11:35:55.478Z,1.50
2023-10-23T11:38:25.209Z,0.93
2023-10-23T11:40:54.508Z,1.10
2023-10-23T11:43:22.568Z,1.00
2023-10-23T11:45:50.630Z,1.20
2023-10-23T11:48:18.847Z,1.10
2023-10-23T11:50:48.344Z,1.03
2023-10-23T11:53:17.907Z,1.33
2023-10-23T11:55:46.846Z,1.20
2023-10-23T11:58:14.788Z,1.30
2023-10-23T12:00:42.836Z,1.30
2023-10-23T12:03:10.857Z,1.20
2023-10-23T12:05:38.858Z,1.30
2023-10-23T12:08:08.141Z,0.97
2023-10-23T12:10:39.642Z,1.20
2023-10-23T12:13:07.589Z,1.30
2023-10-23T12:15:35.509Z,1.20
2023-10-23T12:18:05.642Z,0.87
2023-10-23T12:20:33.957Z,1.23
2023-10-23T12:23:01.829Z,0.90
2023-10-23T12:25:31.415Z,1.00
2023-10-23T12:27:59.570Z,1.00
2023-10-23T12:30:28.962Z,0.90
2023-10-23T12:33:12.706Z,0.83
2023-10-23T12:35:45.510Z,1.00
2023-10-23T12:38:13.617Z,0.90
2023-10-23T12:40:44.756Z,1.20
2023-10-23T12:43:13.010Z,1.10
2023-10-23T12:45:41.648Z,1.00
2023-10-23T12:48:09.875Z,1.00
2023-10-23T12:50:37.883Z,1.10
2023-10-23T12:53:05.968Z,1.00
2023-10-23T12:55:33.921Z,1.10
2023-10-23T12:58:04.023Z,1.30
2023-10-23T13:00:32.024Z,1.20
2023-10-23T13:02:59.978Z,1.00
2023-10-23T13:05:28.134Z,1.10
2023-10-23T13:07:56.133Z,1.30
2023-10-23T13:10:24.015Z,1.10
2023-10-23T13:12:51.921Z,1.23
2023-10-23T13:15:21.317Z,1.10
2023-10-23T13:17:49.241Z,1.30
2023-10-23T13:21:28.595Z,1.10
2023-10-23T13:23:05.245Z,1.33
2023-10-23T13:25:33.512Z,1.30
2023-10-23T13:28:01.487Z,1.27
2023-10-23T13:30:30.998Z,1.17
2023-10-23T13:32:58.940Z,1.30
2023-10-23T13:35:26.865Z,0.90
2023-10-23T13:37:54.822Z,1.03
2023-10-23T13:40:23.929Z,0.90
2023-10-23T13:42:51.950Z,1.00
2023-10-23T13:45:19.903Z,1.10
2023-10-23T13:47:49.202Z,1.10
2023-10-23T13:50:17.166Z,1.20
2023-10-23T13:52:45.030Z,1.10
2023-10-23T13:55:12.908Z,0.83
2023-10-23T13:57:40.832Z,1.00
2023-10-23T14:00:10.833Z,1.10
2023-10-23T14:02:39.117Z,1.10
2023-10-23T14:05:09.632Z,0.90
2023-10-23T14:07:38.089Z,1.00
2023-10-23T14:10:06.819Z,1.03
2023-10-23T14:12:34.797Z,1.10
2023-10-23T14:15:02.671Z,1.20
2023-10-23T14:17:33.303Z,1.30
2023-10-23T14:20:01.303Z,0.97
2023-10-23T14:22:30.662Z,1.20
2023-10-23T14:24:58.646Z,1.53
2023-10-23T14:27:26.724Z,1.20
2023-10-23T14:29:54.534Z,1.70
2023-10-23T14:32:22.459Z,1.20
2023-10-23T14:34:50.780Z,1.40
2023-10-23T14:37:18.790Z,1.40
2023-10-23T14:39:48.105Z,1.23
2023-10-23T14:42:15.946Z,1.30
2023-10-23T14:44:43.828Z,1.43
2023-10-23T14:47:12.012Z,1.47
2023-10-23T14:49:40.247Z,1.57
2023-10-23T14:52:08.478Z,1.70
2023-10-23T14:54:38.173Z,1.60
2023-10-23T14:57:08.692Z,1.70
2023-10-23T14:59:36.602Z,1.27
2023-10-23T15:02:04.826Z,1.30
2023-10-23T15:04:34.618Z,1.30
2023-10-23T15:07:04.551Z,1.53
2023-10-23T15:09:32.594Z,1.37
2023-10-23T15:12:00.485Z,1.37
2023-10-23T15:14:29.867Z,1.40
2023-10-23T15:16:59.708Z,1.50
2023-10-23T15:19:28.003Z,1.40
2023-10-23T15:21:56.063Z,1.50
2023-10-23T15:24:24.090Z,1.50
2023-10-23T15:26:52.020Z,1.40
2023-10-23T15:29:19.944Z,1.30
2023-10-23T15:31:49.334Z,1.87
2023-10-23T15:34:17.295Z,1.60
2023-10-23T15:36:45.260Z,1.57
2023-10-23T15:39:13.117Z,1.50
2023-10-23T15:41:40.962Z,1.43
2023-10-23T15:44:08.929Z,1.80
2023-10-23T15:46:36.977Z,1.50
2023-10-23T15:49:06.408Z,1.83
2023-10-23T15:51:34.335Z,1.40
2023-10-23T15:54:02.181Z,1.60
2023-10-23T15:56:31.151Z,1.50
2023-10-23T15:58:59.106Z,1.53
2023-10-23T16:01:27.146Z,1.60
2023-10-23T16:03:55.056Z,1.93
2023-10-23T16:06:24.369Z,1.43
2023-10-23T16:08:52.289Z,1.60
2023-10-23T16:11:21.550Z,1.90
2023-10-23T16:13:49.454Z,1.90
2023-10-23T16:16:18.169Z,2.10
2023-10-23T16:18:46.617Z,2.10
2023-10-23T16:21:15.421Z,2.10
2023-10-23T16:23:45.067Z,1.73
2023-10-23T16:26:13.015Z,1.90
2023-10-23T16:28:41.667Z,1.67
2023-10-23T16:31:14.954Z,1.87
2023-10-23T16:33:43.047Z,2.10
2023-10-23T16:36:11.329Z,2.00
2023-10-23T16:38:39.253Z,2.07
2023-10-23T16:41:08.514Z,2.30
2023-10-23T16:43:41.278Z,3.00
2023-10-23T16:46:09.611Z,2.07
2023-10-23T16:48:37.490Z,1.70
2023-10-23T16:51:06.224Z,2.00
2023-10-23T16:53:35.562Z,2.00
2023-10-23T16:56:04.137Z,2.10
2023-10-23T16:58:33.531Z,1.77
2023-10-23T17:01:06.277Z,1.90
2023-10-23T17:03:36.231Z,1.83
2023-10-23T17:06:07.096Z,1.50
2023-10-23T17:08:35.092Z,1.90
2023-10-23T17:11:07.217Z,2.10
2023-10-23T17:13:36.637Z,2.20
2023-10-23T17:16:05.550Z,2.10
2023-10-23T17:18:33.443Z,2.17
2023-10-23T17:21:03.970Z,2.13
2023-10-23T17:23:34.912Z,2.57
2023-10-23T17:26:03.134Z,3.27
2023-10-23T17:28:31.079Z,2.73
2023-10-23T17:31:01.242Z,2.77
2023-10-23T17:33:31.496Z,2.47
2023-10-23T17:35:59.860Z,2.40
2023-10-23T17:38:28.564Z,1.87
2023-10-23T17:40:56.995Z,2.10
2023-10-23T17:43:25.198Z,2.20
2023-10-23T17:45:53.118Z,2.53
2023-10-23T17:48:22.328Z,2.30
2023-10-23T17:50:50.218Z,2.20
2023-10-23T17:53:18.061Z,2.40
2023-10-23T17:55:48.538Z,2.70
2023-10-23T17:58:16.391Z,2.93
2023-10-23T18:00:44.389Z,2.70
2023-10-23T18:03:12.380Z,2.50
2023-10-23T18:05:41.726Z,2.97
2023-10-23T18:08:09.597Z,2.77
2023-10-23T18:10:39.201Z,3.07
2023-10-23T18:13:07.384Z,2.67
2023-10-23T18:15:35.259Z,2.77
2023-10-23T18:18:03.297Z,3.30
2023-10-23T18:20:31.500Z,3.93
2023-10-23T18:23:01.315Z,4.20
2023-10-23T18:25:29.319Z,4.90
2023-10-23T18:27:57.349Z,4.67
2023-10-23T18:30:26.766Z,5.10
2023-10-23T18:32:54.876Z,4.20
2023-10-23T18:35:22.937Z,5.27
2023-10-23T18:37:50.870Z,5.73
2023-10-23T18:40:20.457Z,5.07
2023-10-23T18:42:48.296Z,4.60
2023-10-23T18:45:16.247Z,4.10
2023-10-23T18:47:44.191Z,4.63
2023-10-23T18:50:12.738Z,4.70
2023-10-23T18:52:40.593Z,4.13
2023-10-23T18:55:10.185Z,4.60
2023-10-23T18:57:39.558Z,4.10
2023-10-23T19:00:10.319Z,4.77
2023-10-23T19:02:38.282Z,5.00
2023-10-23T19:05:07.065Z,4.73
2023-10-23T19:07:34.959Z,5.00
2023-10-23T19:10:02.984Z,5.03
2023-10-23T19:12:30.865Z,5.20
2023-10-23T19:15:00.505Z,5.00
2023-10-23T19:17:39.607Z,4.30
2023-10-23T19:20:10.909Z,4.17
2023-10-23T19:22:39.995Z,4.30
2023-10-23T19:25:09.094Z,4.07
2023-10-23T19:27:37.029Z,3.60
2023-10-23T19:30:11.527Z,3.80
2023-10-23T19:32:42.038Z,3.87
2023-10-23T19:35:12.816Z,4.00
2023-10-23T19:37:43.148Z,3.60
2023-10-23T19:40:12.620Z,4.03
2023-10-23T19:42:42.518Z,3.80
2023-10-23T19:45:12.979Z,3.33
2023-10-23T19:47:41.434Z,3.60
2023-10-23T19:50:11.028Z,3.27
2023-10-23T19:52:39.398Z,3.87
2023-10-23T19:55:42.417Z,3.27
2023-10-23T19:57:57.764Z,3.20
2023-10-23T20:00:27.030Z,3.33
2023-10-23T20:02:55.788Z,3.53
2023-10-23T20:05:26.632Z,3.60
2023-10-23T20:07:54.580Z,3.33
2023-10-23T20:10:24.096Z,3.77
2023-10-23T20:12:53.322Z,3.83
2023-10-23T20:15:21.196Z,3.83
2023-10-23T20:17:51.557Z,3.80
2023-10-23T20:20:19.460Z,3.87
2023-10-23T20:22:47.570Z,3.67
2023-10-23T20:25:15.632Z,4.07
2023-10-23T20:27:44.030Z,3.93
2023-10-23T20:30:13.145Z,3.77
2023-10-23T20:32:41.254Z,3.93
2023-10-23T20:35:13.234Z,4.60
2023-10-23T20:37:42.150Z,4.03
2023-10-23T20:40:11.260Z,4.60
2023-10-23T20:42:39.402Z,4.90
2023-10-23T20:45:08.346Z,5.03
2023-10-23T20:47:36.766Z,4.80
2023-10-23T20:50:05.868Z,5.27
2023-10-23T20:52:35.188Z,5.77
2023-10-23T20:55:04.240Z,4.73
2023-10-23T20:57:32.156Z,5.10
2023-10-23T21:00:00.326Z,5.43
2023-10-23T21:02:29.105Z,5.20
2023-10-23T21:04:57.000Z,5.73
2023-10-23T21:07:24.899Z,5.90
2023-10-23T21:09:54.398Z,5.80
2023-10-23T21:12:23.430Z,5.10
2023-10-23T21:14:51.276Z,5.43
2023-10-23T21:17:19.865Z,5.47
2023-10-23T21:19:48.014Z,5.63
2023-10-23T21:22:16.034Z,5.90
2023-10-23T21:24:44.092Z,6.03
2023-10-23T21:27:13.384Z,5.93
2023-10-23T21:29:41.525Z,5.53
2023-10-23T21:32:09.687Z,6.20
2023-10-23T21:34:37.792Z,6.40
2023-10-23T21:37:06.292Z,6.10
2023-10-23T21:39:34.259Z,6.10
2023-10-23T21:42:02.221Z,5.97
2023-10-23T21:44:31.731Z,5.60
2023-10-23T21:46:59.831Z,6.27
2023-10-23T21:49:28.188Z,6.07
2023-10-23T21:51:57.003Z,6.27
2023-10-23T21:54:25.393Z,6.50
2023-10-23T21:57:22.060Z,5.90
2023-10-23T21:59:43.584Z,5.97
2023-10-23T22:02:12.932Z,6.03
2023-10-23T22:04:41.465Z,6.20
2023-10-23T22:07:10.219Z,7.03
2023-10-23T22:09:38.537Z,6.57
2023-10-23T22:12:07.233Z,7.00
2023-10-23T22:14:35.575Z,6.50
2023-10-23T22:17:05.376Z,6.43
2023-10-23T22:19:33.373Z,6.43
2023-10-23T22:22:02.281Z,7.23
2023-10-23T22:24:30.285Z,7.00
2023-10-23T22:26:58.170Z,7.27
2023-10-23T22:29:27.369Z,6.47
2023-10-23T22:31:56.379Z,6.80
2023-10-23T22:34:25.705Z,7.10
2023-10-23T22:37:58.682Z,6.57
2023-10-23T22:39:41.695Z,6.93
2023-10-23T22:42:09.583Z,5.77
2023-10-23T22:44:37.438Z,6.23
2023-10-23T22:47:05.815Z,6.10
2023-10-23T22:49:35.896Z,6.80
2023-10-23T22:52:04.886Z,6.23
2023-10-23T22:54:33.374Z,5.80
2023-10-23T22:57:05.612Z,6.20
2023-10-23T22:59:36.544Z,6.20
2023-10-23T23:02:05.161Z,6.10
2023-10-23T23:04:35.489Z,6.27
2023-10-23T23:07:04.763Z,5.90
2023-10-23T23:09:33.170Z,5.87
2023-10-23T23:12:01.584Z,6.97
2023-10-23T23:14:29.891Z,6.43
2023-10-23T23:17:02.471Z,6.40
2023-10-23T23:19:31.827Z,5.93
2023-10-23T23:22:07.160Z,6.70
2023-10-23T23:24:35.036Z,5.73
2023-10-23T23:27:02.865Z,6.17
2023-10-23T23:29:30.761Z,6.50
2023-10-23T23:31:59.119Z,5.60
2023-10-23T23:34:27.046Z,6.03
2023-10-23T23:36:54.914Z,6.50
2023-10-23T23:39:24.297Z,6.60
2023-10-23T23:41:53.436Z,6.20
2023-10-23T23:44:21.364Z,6.07
2023-10-23T23:46:49.386Z,5.93
2023-10-23T23:49:17.448Z,6.03
2023-10-23T23:51:45.301Z,5.87
2023-10-23T23:54:13.111Z,5.57
2023-10-23T23:56:42.372Z,5.70
2023-10-23T23:59:10.214Z,5.63
